TAM4724 SBBR-SBRF
Flight info
| Callsign | TAM4724 |
|---|---|
| Flight time | 2h 9m |
| Altitude | 35000 |
| Route | UGTAK UZ19 EPGEM DCT EGIKO DCT MUDAR |
| Aircraft | A21N/M-SDE3FGHIRWY/LB1 |
Departure
| Time | 2026-05-03 20:56 |
|---|---|
| Airport | Presidente Juscelino Kubitschek International Airport (SBBR) |
Arrival
| Time | 2026-05-03 23:06 |
|---|---|
| Airport | Recife/Guararapes - Gilberto Freyre International Airport (SBRF) |
| Time | Latitude | Longitude | Altitude | Speed | Heading |
|---|---|---|---|---|---|
| 2026-05-03 20:27 | -15.87274 | -47.91891 | 3473 ft | 0 kts | 356° |
| 2026-05-03 20:28 | -15.87274 | -47.91890 | 3473 ft | 0 kts | 357° |
| 2026-05-03 20:44 | -15.87289 | -47.91889 | 3473 ft | 0 kts | 0° |
| 2026-05-03 20:44 | -15.87315 | -47.91893 | 3474 ft | 0 kts | 24° |
| 2026-05-03 20:44 | -15.87329 | -47.91907 | 3473 ft | 0 kts | 84° |
| 2026-05-03 20:45 | -15.87330 | -47.91909 | 3473 ft | 0 kts | 86° |
| 2026-05-03 20:49 | -15.87329 | -47.91905 | 3476 ft | 2 kts | 85° |
| 2026-05-03 20:49 | -15.87327 | -47.91874 | 3476 ft | 6 kts | 85° |
| 2026-05-03 20:49 | -15.87323 | -47.91818 | 3477 ft | 9 kts | 86° |
| 2026-05-03 20:49 | -15.87319 | -47.91738 | 3477 ft | 13 kts | 85° |
| 2026-05-03 20:50 | -15.87313 | -47.91638 | 3476 ft | 15 kts | 88° |
| 2026-05-03 20:50 | -15.87292 | -47.91582 | 3475 ft | 11 kts | 22° |
| 2026-05-03 20:50 | -15.87184 | -47.91583 | 3477 ft | 12 kts | 356° |
| 2026-05-03 20:50 | -15.87099 | -47.91588 | 3477 ft | 13 kts | 356° |
| 2026-05-03 20:51 | -15.87041 | -47.91593 | 3476 ft | 13 kts | 355° |
| 2026-05-03 20:51 | -15.86917 | -47.91601 | 3474 ft | 14 kts | 356° |
| 2026-05-03 20:51 | -15.86854 | -47.91605 | 3476 ft | 14 kts | 357° |
| 2026-05-03 20:51 | -15.86755 | -47.91613 | 3476 ft | 14 kts | 355° |
| 2026-05-03 20:52 | -15.86653 | -47.91620 | 3476 ft | 15 kts | 356° |
| 2026-05-03 20:52 | -15.86549 | -47.91626 | 3474 ft | 15 kts | 357° |
| 2026-05-03 20:52 | -15.86480 | -47.91677 | 3471 ft | 12 kts | 266° |
| 2026-05-03 20:52 | -15.86486 | -47.91755 | 3473 ft | 11 kts | 266° |
| 2026-05-03 20:53 | -15.86491 | -47.91840 | 3474 ft | 12 kts | 267° |
| 2026-05-03 20:53 | -15.86496 | -47.91929 | 3474 ft | 13 kts | 265° |
| 2026-05-03 20:53 | -15.86502 | -47.92025 | 3474 ft | 14 kts | 265° |
| 2026-05-03 20:53 | -15.86510 | -47.92129 | 3473 ft | 15 kts | 265° |
| 2026-05-03 20:54 | -15.86518 | -47.92240 | 3474 ft | 16 kts | 265° |
| 2026-05-03 20:54 | -15.86533 | -47.92481 | 3473 ft | 17 kts | 266° |
| 2026-05-03 20:54 | -15.86539 | -47.92605 | 3470 ft | 17 kts | 266° |
| 2026-05-03 20:55 | -15.86547 | -47.92733 | 3468 ft | 18 kts | 277° |
| 2026-05-03 20:55 | -15.86440 | -47.92768 | 3466 ft | 18 kts | 5° |
| 2026-05-03 20:55 | -15.86354 | -47.92698 | 3466 ft | 14 kts | 86° |
| 2026-05-03 20:55 | -15.86352 | -47.92672 | 3466 ft | 3 kts | 86° |
| 2026-05-03 20:56 | -15.86335 | -47.92397 | 3471 ft | 75 kts | 86° |
| 2026-05-03 20:56 | -15.86282 | -47.91601 | 3469 ft | 144 kts | 86° |
| 2026-05-03 20:56 | -15.86209 | -47.90422 | 3606 ft | 176 kts | 88° |
| 2026-05-03 20:56 | -15.86150 | -47.89146 | 4258 ft | 177 kts | 90° |
| 2026-05-03 20:57 | -15.86093 | -47.87856 | 4780 ft | 181 kts | 86° |
| 2026-05-03 20:57 | -15.85960 | -47.86524 | 5211 ft | 192 kts | 86° |
| 2026-05-03 20:57 | -15.85871 | -47.85093 | 5578 ft | 206 kts | 87° |
| 2026-05-03 20:57 | -15.85781 | -47.83558 | 5936 ft | 220 kts | 86° |
| 2026-05-03 20:58 | -15.85678 | -47.81909 | 6196 ft | 240 kts | 87° |
| 2026-05-03 20:58 | -15.85528 | -47.80107 | 6375 ft | 261 kts | 78° |
| 2026-05-03 20:58 | -15.84818 | -47.78339 | 6880 ft | 271 kts | 60° |
| 2026-05-03 20:58 | -15.83820 | -47.76688 | 7516 ft | 276 kts | 59° |
| 2026-05-03 20:59 | -15.82773 | -47.75004 | 8162 ft | 279 kts | 59° |
| 2026-05-03 20:59 | -15.81729 | -47.73292 | 8838 ft | 281 kts | 59° |
| 2026-05-03 20:59 | -15.80687 | -47.71564 | 9518 ft | 284 kts | 59° |
| 2026-05-03 20:59 | -15.79638 | -47.69812 | 10151 ft | 288 kts | 59° |
| 2026-05-03 21:00 | -15.78537 | -47.67968 | 10457 ft | 305 kts | 59° |
| 2026-05-03 21:00 | -15.77785 | -47.66702 | 10613 ft | 316 kts | 59° |
| 2026-05-03 21:00 | -15.76208 | -47.64067 | 11103 ft | 330 kts | 59° |
| 2026-05-03 21:00 | -15.74984 | -47.62026 | 11639 ft | 335 kts | 59° |
| 2026-05-03 21:01 | -15.73745 | -47.59966 | 12206 ft | 339 kts | 59° |
| 2026-05-03 21:01 | -15.72492 | -47.57879 | 12779 ft | 342 kts | 59° |
| 2026-05-03 21:01 | -15.71230 | -47.55769 | 13314 ft | 346 kts | 59° |
| 2026-05-03 21:01 | -15.69957 | -47.53641 | 13844 ft | 349 kts | 59° |
| 2026-05-03 21:02 | -15.68668 | -47.51485 | 14314 ft | 353 kts | 59° |
| 2026-05-03 21:02 | -15.67369 | -47.49309 | 14786 ft | 356 kts | 59° |
| 2026-05-03 21:02 | -15.66057 | -47.47121 | 15277 ft | 358 kts | 59° |
| 2026-05-03 21:02 | -15.64738 | -47.44919 | 15751 ft | 362 kts | 59° |
| 2026-05-03 21:03 | -15.63406 | -47.42690 | 16232 ft | 364 kts | 58° |
| 2026-05-03 21:03 | -15.62062 | -47.40452 | 16699 ft | 367 kts | 58° |
| 2026-05-03 21:03 | -15.60709 | -47.38195 | 17169 ft | 370 kts | 58° |
| 2026-05-03 21:03 | -15.59344 | -47.35920 | 17667 ft | 372 kts | 58° |
| 2026-05-03 21:04 | -15.57980 | -47.33632 | 18123 ft | 375 kts | 58° |
| 2026-05-03 21:04 | -15.56595 | -47.31324 | 18558 ft | 378 kts | 58° |
| 2026-05-03 21:04 | -15.55201 | -47.29006 | 18947 ft | 380 kts | 58° |
| 2026-05-03 21:04 | -15.53796 | -47.26668 | 19342 ft | 383 kts | 57° |
| 2026-05-03 21:05 | -15.52387 | -47.24320 | 19750 ft | 385 kts | 57° |
| 2026-05-03 21:05 | -15.50965 | -47.21948 | 20145 ft | 388 kts | 57° |
| 2026-05-03 21:05 | -15.49545 | -47.19561 | 20548 ft | 390 kts | 57° |
| 2026-05-03 21:05 | -15.48119 | -47.17155 | 20939 ft | 393 kts | 57° |
| 2026-05-03 21:06 | -15.46681 | -47.14737 | 21351 ft | 395 kts | 57° |
| 2026-05-03 21:06 | -15.45222 | -47.12314 | 21734 ft | 397 kts | 57° |
| 2026-05-03 21:06 | -15.43743 | -47.09884 | 22117 ft | 400 kts | 56° |
| 2026-05-03 21:06 | -15.42256 | -47.07437 | 22498 ft | 403 kts | 56° |
| 2026-05-03 21:07 | -15.40769 | -47.04973 | 22863 ft | 405 kts | 57° |
| 2026-05-03 21:07 | -15.39274 | -47.02485 | 23234 ft | 408 kts | 57° |
| 2026-05-03 21:07 | -15.37767 | -46.99980 | 23594 ft | 410 kts | 56° |
| 2026-05-03 21:07 | -15.36247 | -46.97465 | 23887 ft | 413 kts | 56° |
| 2026-05-03 21:08 | -15.34721 | -46.94939 | 24190 ft | 415 kts | 56° |
| 2026-05-03 21:08 | -15.33188 | -46.92395 | 24488 ft | 417 kts | 56° |
| 2026-05-03 21:08 | -15.31669 | -46.89876 | 24776 ft | 420 kts | 56° |
| 2026-05-03 21:08 | -15.30117 | -46.87300 | 25061 ft | 422 kts | 56° |
| 2026-05-03 21:09 | -15.28568 | -46.84710 | 25345 ft | 425 kts | 57° |
| 2026-05-03 21:09 | -15.27008 | -46.82102 | 25620 ft | 428 kts | 56° |
| 2026-05-03 21:09 | -15.25423 | -46.79476 | 25890 ft | 430 kts | 56° |
| 2026-05-03 21:09 | -15.23829 | -46.76853 | 26166 ft | 432 kts | 56° |
| 2026-05-03 21:10 | -15.22224 | -46.74205 | 26420 ft | 435 kts | 56° |
| 2026-05-03 21:10 | -15.20619 | -46.71546 | 26698 ft | 437 kts | 57° |
| 2026-05-03 21:10 | -15.18998 | -46.68858 | 26978 ft | 439 kts | 57° |
| 2026-05-03 21:10 | -15.17380 | -46.66176 | 27256 ft | 441 kts | 57° |
| 2026-05-03 21:11 | -15.15749 | -46.63471 | 27501 ft | 444 kts | 57° |
| 2026-05-03 21:11 | -15.14111 | -46.60762 | 27764 ft | 446 kts | 57° |
| 2026-05-03 21:11 | -15.12456 | -46.58031 | 28006 ft | 448 kts | 57° |
| 2026-05-03 21:11 | -15.10797 | -46.55294 | 28260 ft | 450 kts | 57° |
| 2026-05-03 21:12 | -15.09131 | -46.52547 | 28499 ft | 452 kts | 57° |
| 2026-05-03 21:12 | -15.07448 | -46.49784 | 28750 ft | 454 kts | 57° |
| 2026-05-03 21:12 | -15.05761 | -46.47010 | 28978 ft | 456 kts | 57° |
| 2026-05-03 21:12 | -15.04067 | -46.44221 | 29209 ft | 458 kts | 57° |
| 2026-05-03 21:13 | -15.02362 | -46.41428 | 29430 ft | 460 kts | 57° |
| 2026-05-03 21:13 | -15.00647 | -46.38626 | 29659 ft | 462 kts | 57° |
| 2026-05-03 21:13 | -14.98934 | -46.35814 | 29871 ft | 464 kts | 57° |
| 2026-05-03 21:13 | -14.97215 | -46.32974 | 30083 ft | 466 kts | 57° |
| 2026-05-03 21:14 | -14.95500 | -46.30134 | 30267 ft | 467 kts | 57° |
| 2026-05-03 21:14 | -14.93769 | -46.27282 | 30442 ft | 469 kts | 57° |
| 2026-05-03 21:14 | -14.92033 | -46.24429 | 30617 ft | 470 kts | 57° |
| 2026-05-03 21:14 | -14.90483 | -46.21435 | 30786 ft | 473 kts | 66° |
| 2026-05-03 21:15 | -14.89375 | -46.18228 | 30960 ft | 474 kts | 72° |
| 2026-05-03 21:15 | -14.88389 | -46.14968 | 31139 ft | 476 kts | 72° |
| 2026-05-03 21:15 | -14.87420 | -46.11692 | 31308 ft | 477 kts | 72° |
| 2026-05-03 21:15 | -14.86436 | -46.08412 | 31476 ft | 479 kts | 72° |
| 2026-05-03 21:16 | -14.85439 | -46.05121 | 31632 ft | 480 kts | 72° |
| 2026-05-03 21:16 | -14.84434 | -46.01833 | 31798 ft | 482 kts | 72° |
| 2026-05-03 21:16 | -14.83421 | -45.98528 | 31955 ft | 483 kts | 72° |
| 2026-05-03 21:16 | -14.82406 | -45.95211 | 32123 ft | 484 kts | 72° |
| 2026-05-03 21:17 | -14.81387 | -45.91899 | 32320 ft | 483 kts | 72° |
| 2026-05-03 21:17 | -14.80715 | -45.89709 | 32449 ft | 483 kts | 72° |
| 2026-05-03 21:17 | -14.79354 | -45.85286 | 32701 ft | 483 kts | 72° |
| 2026-05-03 21:17 | -14.78339 | -45.81975 | 32883 ft | 483 kts | 72° |
| 2026-05-03 21:18 | -14.77319 | -45.78669 | 33056 ft | 483 kts | 72° |
| 2026-05-03 21:18 | -14.76304 | -45.75363 | 33229 ft | 483 kts | 72° |
| 2026-05-03 21:18 | -14.75289 | -45.72063 | 33405 ft | 483 kts | 72° |
| 2026-05-03 21:18 | -14.74270 | -45.68750 | 33578 ft | 483 kts | 72° |
| 2026-05-03 21:19 | -14.73251 | -45.65451 | 33730 ft | 483 kts | 72° |
| 2026-05-03 21:19 | -14.72234 | -45.62150 | 33885 ft | 483 kts | 72° |
| 2026-05-03 21:19 | -14.71214 | -45.58842 | 34028 ft | 483 kts | 72° |
| 2026-05-03 21:19 | -14.70197 | -45.55540 | 34170 ft | 482 kts | 72° |
| 2026-05-03 21:20 | -14.69181 | -45.52240 | 34305 ft | 482 kts | 72° |
| 2026-05-03 21:20 | -14.68161 | -45.48941 | 34435 ft | 482 kts | 72° |
| 2026-05-03 21:20 | -14.67144 | -45.45643 | 34572 ft | 481 kts | 72° |
| 2026-05-03 21:20 | -14.66130 | -45.42348 | 34694 ft | 481 kts | 72° |
| 2026-05-03 21:21 | -14.65113 | -45.39064 | 34820 ft | 481 kts | 72° |
| 2026-05-03 21:21 | -14.64095 | -45.35778 | 34945 ft | 480 kts | 72° |
| 2026-05-03 21:21 | -14.62066 | -45.29223 | 35013 ft | 478 kts | 72° |
| 2026-05-03 21:22 | -14.60036 | -45.22689 | 34990 ft | 478 kts | 72° |
| 2026-05-03 21:22 | -14.58006 | -45.16161 | 34988 ft | 477 kts | 72° |
| 2026-05-03 21:23 | -14.55993 | -45.09676 | 34982 ft | 477 kts | 72° |
| 2026-05-03 21:23 | -14.53973 | -45.03152 | 34983 ft | 477 kts | 72° |
| 2026-05-03 21:24 | -14.51954 | -44.96634 | 34983 ft | 477 kts | 72° |
| 2026-05-03 21:24 | -14.49920 | -44.90126 | 34978 ft | 477 kts | 72° |
| 2026-05-03 21:25 | -14.47882 | -44.83610 | 34981 ft | 477 kts | 71° |
| 2026-05-03 21:25 | -14.44863 | -44.77574 | 34980 ft | 474 kts | 52° |
| 2026-05-03 21:26 | -14.40764 | -44.72262 | 34979 ft | 474 kts | 50° |
| 2026-05-03 21:26 | -14.36649 | -44.66952 | 34975 ft | 474 kts | 50° |
| 2026-05-03 21:27 | -14.32567 | -44.61622 | 34974 ft | 473 kts | 51° |
| 2026-05-03 21:27 | -14.28485 | -44.56310 | 34973 ft | 473 kts | 51° |
| 2026-05-03 21:28 | -14.24402 | -44.50986 | 34971 ft | 473 kts | 51° |
| 2026-05-03 21:28 | -14.20324 | -44.45660 | 34968 ft | 473 kts | 51° |
| 2026-05-03 21:29 | -14.16235 | -44.40354 | 34968 ft | 473 kts | 51° |
| 2026-05-03 21:29 | -14.12184 | -44.35086 | 34964 ft | 472 kts | 51° |
| 2026-05-03 21:30 | -14.08099 | -44.29788 | 34968 ft | 472 kts | 51° |
| 2026-05-03 21:30 | -14.04016 | -44.24493 | 34968 ft | 472 kts | 51° |
| 2026-05-03 21:31 | -13.99939 | -44.19194 | 34961 ft | 472 kts | 51° |
| 2026-05-03 21:31 | -13.95862 | -44.13907 | 34961 ft | 471 kts | 51° |
| 2026-05-03 21:32 | -13.91790 | -44.08637 | 34963 ft | 470 kts | 51° |
| 2026-05-03 21:32 | -13.87739 | -44.03357 | 34960 ft | 470 kts | 51° |
| 2026-05-03 21:33 | -13.83661 | -43.98087 | 34960 ft | 470 kts | 50° |
| 2026-05-03 21:33 | -13.79581 | -43.92832 | 34957 ft | 470 kts | 51° |
| 2026-05-03 21:34 | -13.75516 | -43.87565 | 34957 ft | 470 kts | 51° |
| 2026-05-03 21:34 | -13.71450 | -43.82297 | 34954 ft | 470 kts | 51° |
| 2026-05-03 21:35 | -13.67380 | -43.77038 | 34953 ft | 470 kts | 51° |
| 2026-05-03 21:35 | -13.63308 | -43.71789 | 34949 ft | 470 kts | 51° |
| 2026-05-03 21:36 | -13.59238 | -43.66534 | 34949 ft | 470 kts | 50° |
| 2026-05-03 21:36 | -13.55853 | -43.62171 | 34947 ft | 470 kts | 51° |
| 2026-05-03 21:37 | -13.51100 | -43.56038 | 34946 ft | 469 kts | 51° |
| 2026-05-03 21:37 | -13.47043 | -43.50796 | 34946 ft | 469 kts | 51° |
| 2026-05-03 21:38 | -13.43653 | -43.46447 | 34947 ft | 468 kts | 50° |
| 2026-05-03 21:38 | -13.39580 | -43.41227 | 34951 ft | 468 kts | 50° |
| 2026-05-03 21:39 | -13.35511 | -43.36003 | 34945 ft | 468 kts | 51° |
| 2026-05-03 21:39 | -13.30794 | -43.29934 | 34945 ft | 468 kts | 51° |
| 2026-05-03 21:40 | -13.27392 | -43.25562 | 34951 ft | 468 kts | 50° |
| 2026-05-03 21:40 | -13.23328 | -43.20343 | 34952 ft | 468 kts | 51° |
| 2026-05-03 21:41 | -13.19286 | -43.15169 | 34961 ft | 468 kts | 50° |
| 2026-05-03 21:41 | -13.15223 | -43.09959 | 34961 ft | 468 kts | 51° |
| 2026-05-03 21:42 | -13.11155 | -43.04759 | 34957 ft | 467 kts | 50° |
| 2026-05-03 21:42 | -13.07085 | -42.99559 | 34964 ft | 467 kts | 50° |
| 2026-05-03 21:43 | -13.03022 | -42.94346 | 34960 ft | 467 kts | 51° |
| 2026-05-03 21:43 | -12.98970 | -42.89132 | 34966 ft | 467 kts | 51° |
| 2026-05-03 21:44 | -12.94905 | -42.83937 | 34971 ft | 467 kts | 50° |
| 2026-05-03 21:44 | -12.90821 | -42.78744 | 34971 ft | 468 kts | 50° |
| 2026-05-03 21:45 | -12.86740 | -42.73546 | 34971 ft | 468 kts | 50° |
| 2026-05-03 21:45 | -12.82665 | -42.68329 | 34974 ft | 468 kts | 50° |
| 2026-05-03 21:46 | -12.78579 | -42.63130 | 34967 ft | 468 kts | 50° |
| 2026-05-03 21:46 | -12.74505 | -42.57933 | 34971 ft | 466 kts | 50° |
| 2026-05-03 21:47 | -12.70439 | -42.52766 | 34973 ft | 466 kts | 50° |
| 2026-05-03 21:47 | -12.66383 | -42.47595 | 34974 ft | 465 kts | 50° |
| 2026-05-03 21:48 | -12.62324 | -42.42426 | 34985 ft | 466 kts | 50° |
| 2026-05-03 21:48 | -12.58251 | -42.37262 | 34986 ft | 467 kts | 50° |
| 2026-05-03 21:49 | -12.54172 | -42.32091 | 35006 ft | 467 kts | 50° |
| 2026-05-03 21:49 | -12.50120 | -42.26901 | 35013 ft | 467 kts | 50° |
| 2026-05-03 21:50 | -12.46050 | -42.21717 | 35020 ft | 467 kts | 50° |
| 2026-05-03 21:50 | -12.41977 | -42.16549 | 35035 ft | 467 kts | 50° |
| 2026-05-03 21:51 | -12.37901 | -42.11389 | 35038 ft | 467 kts | 50° |
| 2026-05-03 21:51 | -12.33851 | -42.06259 | 35050 ft | 467 kts | 50° |
| 2026-05-03 21:52 | -12.29769 | -42.01107 | 35061 ft | 467 kts | 50° |
| 2026-05-03 21:52 | -12.25685 | -41.95937 | 35056 ft | 467 kts | 50° |
| 2026-05-03 21:53 | -12.21616 | -41.90781 | 35055 ft | 466 kts | 50° |
| 2026-05-03 21:53 | -12.17535 | -41.85638 | 35048 ft | 466 kts | 50° |
| 2026-05-03 21:54 | -12.13453 | -41.80493 | 35051 ft | 466 kts | 50° |
| 2026-05-03 21:54 | -12.09377 | -41.75352 | 35046 ft | 466 kts | 50° |
| 2026-05-03 21:55 | -12.05294 | -41.70203 | 35047 ft | 467 kts | 50° |
| 2026-05-03 21:55 | -12.01207 | -41.65035 | 35048 ft | 468 kts | 49° |
| 2026-05-03 21:56 | -11.97112 | -41.59873 | 35049 ft | 467 kts | 50° |
| 2026-05-03 21:56 | -11.93026 | -41.54718 | 35048 ft | 467 kts | 49° |
| 2026-05-03 21:57 | -11.88934 | -41.49573 | 35053 ft | 467 kts | 49° |
| 2026-05-03 21:57 | -11.84846 | -41.44417 | 35042 ft | 467 kts | 49° |
| 2026-05-03 21:58 | -11.80741 | -41.39248 | 35053 ft | 469 kts | 49° |
| 2026-05-03 21:58 | -11.76625 | -41.34081 | 35055 ft | 469 kts | 49° |
| 2026-05-03 21:59 | -11.72534 | -41.28943 | 35049 ft | 469 kts | 49° |
| 2026-05-03 21:59 | -11.68433 | -41.23767 | 35054 ft | 469 kts | 49° |
| 2026-05-03 22:00 | -11.64316 | -41.18594 | 35053 ft | 469 kts | 49° |
| 2026-05-03 22:00 | -11.60186 | -41.13446 | 35051 ft | 469 kts | 49° |
| 2026-05-03 22:01 | -11.56070 | -41.08270 | 35052 ft | 469 kts | 49° |
| 2026-05-03 22:01 | -11.51961 | -41.03100 | 35050 ft | 469 kts | 49° |
| 2026-05-03 22:02 | -11.47836 | -40.97945 | 35049 ft | 469 kts | 49° |
| 2026-05-03 22:02 | -11.43717 | -40.92781 | 35050 ft | 469 kts | 49° |
| 2026-05-03 22:03 | -11.39601 | -40.87626 | 35042 ft | 470 kts | 48° |
| 2026-05-03 22:03 | -11.35458 | -40.82447 | 35042 ft | 472 kts | 48° |
| 2026-05-03 22:04 | -11.31317 | -40.77266 | 35044 ft | 472 kts | 48° |
| 2026-05-03 22:04 | -11.27177 | -40.72080 | 35037 ft | 472 kts | 49° |
| 2026-05-03 22:05 | -11.23047 | -40.66880 | 35035 ft | 472 kts | 48° |
| 2026-05-03 22:05 | -11.18921 | -40.61738 | 35035 ft | 472 kts | 48° |
| 2026-05-03 22:06 | -11.14740 | -40.56522 | 35031 ft | 473 kts | 48° |
| 2026-05-03 22:06 | -11.10558 | -40.51345 | 35026 ft | 473 kts | 48° |
| 2026-05-03 22:07 | -11.06501 | -40.46119 | 35025 ft | 474 kts | 51° |
| 2026-05-03 22:07 | -11.02577 | -40.40717 | 35025 ft | 475 kts | 51° |
| 2026-05-03 22:08 | -10.98648 | -40.35302 | 35019 ft | 475 kts | 51° |
| 2026-05-03 22:08 | -10.94727 | -40.29904 | 35017 ft | 474 kts | 51° |
| 2026-05-03 22:09 | -10.90820 | -40.24493 | 35013 ft | 475 kts | 51° |
| 2026-05-03 22:10 | -10.84938 | -40.16378 | 35009 ft | 475 kts | 51° |
| 2026-05-03 22:10 | -10.81005 | -40.10972 | 35009 ft | 475 kts | 51° |
| 2026-05-03 22:11 | -10.77054 | -40.05580 | 35008 ft | 475 kts | 51° |
| 2026-05-03 22:11 | -10.73090 | -40.00205 | 35005 ft | 475 kts | 51° |
| 2026-05-03 22:12 | -10.69151 | -39.94813 | 35005 ft | 475 kts | 51° |
| 2026-05-03 22:12 | -10.65198 | -39.89413 | 35009 ft | 478 kts | 51° |
| 2026-05-03 22:13 | -10.61206 | -39.83948 | 35009 ft | 485 kts | 51° |
| 2026-05-03 22:13 | -10.57150 | -39.78425 | 35010 ft | 491 kts | 51° |
| 2026-05-03 22:14 | -10.53063 | -39.72826 | 35008 ft | 495 kts | 51° |
| 2026-05-03 22:14 | -10.48971 | -39.67209 | 35003 ft | 494 kts | 51° |
| 2026-05-03 22:15 | -10.44870 | -39.61616 | 35009 ft | 492 kts | 51° |
| 2026-05-03 22:15 | -10.40793 | -39.56037 | 35010 ft | 491 kts | 51° |
| 2026-05-03 22:16 | -10.36733 | -39.50454 | 35013 ft | 491 kts | 51° |
| 2026-05-03 22:16 | -10.32699 | -39.44913 | 35015 ft | 491 kts | 51° |
| 2026-05-03 22:17 | -10.28580 | -39.39383 | 35016 ft | 491 kts | 50° |
| 2026-05-03 22:17 | -10.24483 | -39.33831 | 35015 ft | 491 kts | 51° |
| 2026-05-03 22:18 | -10.20401 | -39.28270 | 35017 ft | 490 kts | 51° |
| 2026-05-03 22:18 | -10.16327 | -39.22726 | 35015 ft | 490 kts | 51° |
| 2026-05-03 22:19 | -10.12258 | -39.17185 | 35018 ft | 490 kts | 51° |
| 2026-05-03 22:19 | -10.08182 | -39.11636 | 35019 ft | 490 kts | 51° |
| 2026-05-03 22:20 | -10.04106 | -39.06091 | 35019 ft | 490 kts | 51° |
| 2026-05-03 22:20 | -10.00027 | -39.00553 | 35019 ft | 490 kts | 51° |
| 2026-05-03 22:21 | -9.95955 | -38.95026 | 35015 ft | 487 kts | 50° |
| 2026-05-03 22:21 | -9.91889 | -38.89521 | 35024 ft | 487 kts | 50° |
| 2026-05-03 22:22 | -9.87832 | -38.84018 | 35024 ft | 487 kts | 50° |
| 2026-05-03 22:22 | -9.83774 | -38.78512 | 35025 ft | 487 kts | 50° |
| 2026-05-03 22:23 | -9.79713 | -38.73010 | 35023 ft | 487 kts | 50° |
| 2026-05-03 22:23 | -9.75652 | -38.67508 | 35021 ft | 487 kts | 50° |
| 2026-05-03 22:24 | -9.71598 | -38.62019 | 35024 ft | 485 kts | 51° |
| 2026-05-03 22:24 | -9.67555 | -38.56537 | 35023 ft | 485 kts | 50° |
| 2026-05-03 22:25 | -9.63506 | -38.51073 | 35025 ft | 485 kts | 50° |
| 2026-05-03 22:25 | -9.60144 | -38.46523 | 35023 ft | 485 kts | 50° |
| 2026-05-03 22:26 | -9.56103 | -38.41050 | 35008 ft | 485 kts | 50° |
| 2026-05-03 22:26 | -9.52048 | -38.35580 | 35002 ft | 486 kts | 50° |
| 2026-05-03 22:27 | -9.47997 | -38.30104 | 34995 ft | 485 kts | 51° |
| 2026-05-03 22:27 | -9.43947 | -38.24640 | 34996 ft | 485 kts | 51° |
| 2026-05-03 22:28 | -9.39891 | -38.19172 | 34994 ft | 485 kts | 51° |
| 2026-05-03 22:28 | -9.35841 | -38.13706 | 34997 ft | 486 kts | 51° |
| 2026-05-03 22:29 | -9.31789 | -38.08236 | 35001 ft | 486 kts | 51° |
| 2026-05-03 22:29 | -9.27730 | -38.02770 | 35006 ft | 486 kts | 51° |
| 2026-05-03 22:30 | -9.23697 | -37.97286 | 35015 ft | 486 kts | 51° |
| 2026-05-03 22:30 | -9.19647 | -37.91822 | 35021 ft | 486 kts | 51° |
| 2026-05-03 22:31 | -9.15586 | -37.86344 | 35024 ft | 486 kts | 51° |
| 2026-05-03 22:31 | -9.11523 | -37.80884 | 35022 ft | 486 kts | 51° |
| 2026-05-03 22:32 | -9.07459 | -37.75419 | 35023 ft | 486 kts | 50° |
| 2026-05-03 22:32 | -9.03389 | -37.69958 | 35026 ft | 486 kts | 51° |
| 2026-05-03 22:33 | -8.99318 | -37.64487 | 35024 ft | 486 kts | 51° |
| 2026-05-03 22:33 | -8.95255 | -37.59041 | 35029 ft | 484 kts | 50° |
| 2026-05-03 22:34 | -8.91186 | -37.53619 | 35030 ft | 484 kts | 51° |
| 2026-05-03 22:34 | -8.87129 | -37.48183 | 35030 ft | 484 kts | 51° |
| 2026-05-03 22:35 | -8.83071 | -37.42741 | 35031 ft | 485 kts | 51° |
| 2026-05-03 22:35 | -8.79040 | -37.37332 | 35033 ft | 485 kts | 51° |
| 2026-05-03 22:36 | -8.74981 | -37.31886 | 35032 ft | 485 kts | 51° |
| 2026-05-03 22:36 | -8.70894 | -37.26414 | 35033 ft | 484 kts | 51° |
| 2026-05-03 22:37 | -8.66876 | -37.21031 | 35037 ft | 484 kts | 51° |
| 2026-05-03 22:37 | -8.62810 | -37.15596 | 35036 ft | 485 kts | 51° |
| 2026-05-03 22:38 | -8.58716 | -37.10127 | 35039 ft | 485 kts | 51° |
| 2026-05-03 22:38 | -8.54651 | -37.04684 | 35038 ft | 485 kts | 51° |
| 2026-05-03 22:39 | -8.50586 | -36.99251 | 35043 ft | 485 kts | 51° |
| 2026-05-03 22:39 | -8.46507 | -36.93811 | 35050 ft | 487 kts | 51° |
| 2026-05-03 22:40 | -8.42423 | -36.88347 | 35049 ft | 487 kts | 51° |
| 2026-05-03 22:40 | -8.38336 | -36.82880 | 35053 ft | 487 kts | 51° |
| 2026-05-03 22:41 | -8.34269 | -36.77462 | 35054 ft | 487 kts | 51° |
| 2026-05-03 22:41 | -8.30180 | -36.72005 | 35057 ft | 488 kts | 51° |
| 2026-05-03 22:42 | -8.26090 | -36.66546 | 35049 ft | 488 kts | 51° |
| 2026-05-03 22:42 | -8.22001 | -36.61079 | 35049 ft | 488 kts | 52° |
| 2026-05-03 22:43 | -8.18669 | -36.55103 | 35056 ft | 490 kts | 62° |
| 2026-05-03 22:43 | -8.15596 | -36.48964 | 35050 ft | 490 kts | 62° |
| 2026-05-03 22:44 | -8.12504 | -36.42840 | 35048 ft | 490 kts | 62° |
| 2026-05-03 22:44 | -8.10968 | -36.39805 | 34723 ft | 484 kts | 62° |
| 2026-05-03 22:44 | -8.09444 | -36.36787 | 34041 ft | 482 kts | 62° |
| 2026-05-03 22:44 | -8.07920 | -36.33770 | 33223 ft | 482 kts | 62° |
| 2026-05-03 22:45 | -8.06396 | -36.30753 | 32372 ft | 483 kts | 63° |
| 2026-05-03 22:45 | -8.04865 | -36.27732 | 31516 ft | 484 kts | 63° |
| 2026-05-03 22:45 | -8.03336 | -36.24711 | 30652 ft | 484 kts | 63° |
| 2026-05-03 22:45 | -8.01801 | -36.21678 | 29817 ft | 484 kts | 64° |
| 2026-05-03 22:46 | -8.00274 | -36.18660 | 28930 ft | 483 kts | 64° |
| 2026-05-03 22:46 | -7.98747 | -36.15644 | 28160 ft | 481 kts | 64° |
| 2026-05-03 22:46 | -7.97232 | -36.12654 | 27447 ft | 477 kts | 64° |
| 2026-05-03 22:46 | -7.95729 | -36.09690 | 26741 ft | 473 kts | 64° |
| 2026-05-03 22:47 | -7.94235 | -36.06742 | 26034 ft | 469 kts | 64° |
| 2026-05-03 22:47 | -7.92758 | -36.03830 | 25355 ft | 463 kts | 64° |
| 2026-05-03 22:47 | -7.91303 | -36.00958 | 24673 ft | 458 kts | 64° |
| 2026-05-03 22:47 | -7.89864 | -35.98115 | 24052 ft | 451 kts | 64° |
| 2026-05-03 22:48 | -7.88444 | -35.95317 | 23374 ft | 445 kts | 64° |
| 2026-05-03 22:48 | -7.87045 | -35.92565 | 22653 ft | 438 kts | 64° |
| 2026-05-03 22:48 | -7.85665 | -35.89846 | 21874 ft | 434 kts | 64° |
| 2026-05-03 22:48 | -7.84305 | -35.87153 | 21151 ft | 428 kts | 64° |
| 2026-05-03 22:49 | -7.82957 | -35.84496 | 20470 ft | 423 kts | 64° |
| 2026-05-03 22:49 | -7.81626 | -35.81868 | 19831 ft | 417 kts | 64° |
| 2026-05-03 22:49 | -7.80313 | -35.79278 | 19233 ft | 412 kts | 64° |
| 2026-05-03 22:49 | -7.79023 | -35.76731 | 18667 ft | 406 kts | 64° |
| 2026-05-03 22:50 | -7.77746 | -35.74211 | 18086 ft | 401 kts | 64° |
| 2026-05-03 22:50 | -7.76482 | -35.71724 | 17499 ft | 395 kts | 64° |
| 2026-05-03 22:50 | -7.75240 | -35.69280 | 16920 ft | 390 kts | 64° |
| 2026-05-03 22:50 | -7.74014 | -35.66866 | 16377 ft | 384 kts | 63° |
| 2026-05-03 22:51 | -7.72953 | -35.64414 | 15850 ft | 381 kts | 73° |
| 2026-05-03 22:51 | -7.72502 | -35.61793 | 15352 ft | 380 kts | 84° |
| 2026-05-03 22:51 | -7.72285 | -35.59133 | 14835 ft | 381 kts | 85° |
| 2026-05-03 22:51 | -7.72086 | -35.56473 | 14322 ft | 381 kts | 85° |
| 2026-05-03 22:52 | -7.71877 | -35.53801 | 13800 ft | 382 kts | 84° |
| 2026-05-03 22:52 | -7.71658 | -35.51146 | 13219 ft | 378 kts | 84° |
| 2026-05-03 22:52 | -7.71437 | -35.48530 | 12685 ft | 372 kts | 84° |
| 2026-05-03 22:52 | -7.71215 | -35.45944 | 12174 ft | 366 kts | 84° |
| 2026-05-03 22:53 | -7.70995 | -35.43405 | 11653 ft | 361 kts | 84° |
| 2026-05-03 22:53 | -7.70778 | -35.40907 | 11252 ft | 353 kts | 84° |
| 2026-05-03 22:53 | -7.70567 | -35.38485 | 11021 ft | 340 kts | 84° |
| 2026-05-03 22:53 | -7.70366 | -35.36157 | 10837 ft | 327 kts | 84° |
| 2026-05-03 22:54 | -7.70170 | -35.33921 | 10659 ft | 314 kts | 84° |
| 2026-05-03 22:54 | -7.69984 | -35.31779 | 10508 ft | 301 kts | 84° |
| 2026-05-03 22:54 | -7.69805 | -35.29717 | 10254 ft | 292 kts | 85° |
| 2026-05-03 22:54 | -7.69628 | -35.27679 | 9795 ft | 292 kts | 85° |
| 2026-05-03 22:55 | -7.69451 | -35.25636 | 9301 ft | 291 kts | 85° |
| 2026-05-03 22:55 | -7.69275 | -35.23618 | 8936 ft | 287 kts | 85° |
| 2026-05-03 22:55 | -7.69099 | -35.21617 | 8573 ft | 286 kts | 85° |
| 2026-05-03 22:55 | -7.68924 | -35.19628 | 8234 ft | 286 kts | 85° |
| 2026-05-03 22:56 | -7.68750 | -35.17628 | 7899 ft | 285 kts | 86° |
| 2026-05-03 22:56 | -7.68577 | -35.15665 | 7578 ft | 284 kts | 86° |
| 2026-05-03 22:56 | -7.68403 | -35.13681 | 7253 ft | 284 kts | 86° |
| 2026-05-03 22:56 | -7.68229 | -35.11678 | 6924 ft | 283 kts | 86° |
| 2026-05-03 22:57 | -7.68103 | -35.09713 | 6608 ft | 281 kts | 94° |
| 2026-05-03 22:57 | -7.68547 | -35.07828 | 6263 ft | 275 kts | 116° |
| 2026-05-03 22:57 | -7.69725 | -35.06368 | 5944 ft | 269 kts | 146° |
| 2026-05-03 22:57 | -7.71418 | -35.05609 | 5651 ft | 266 kts | 163° |
| 2026-05-03 22:58 | -7.73166 | -35.05113 | 5350 ft | 264 kts | 164° |
| 2026-05-03 22:58 | -7.74944 | -35.04605 | 5041 ft | 261 kts | 163° |
| 2026-05-03 22:58 | -7.76658 | -35.04093 | 4732 ft | 260 kts | 162° |
| 2026-05-03 22:58 | -7.78378 | -35.03562 | 4421 ft | 258 kts | 162° |
| 2026-05-03 22:59 | -7.80012 | -35.02859 | 4100 ft | 255 kts | 146° |
| 2026-05-03 22:59 | -7.81525 | -35.01938 | 3790 ft | 253 kts | 161° |
| 2026-05-03 22:59 | -7.83229 | -35.01540 | 3509 ft | 251 kts | 167° |
| 2026-05-03 22:59 | -7.84930 | -35.01194 | 3217 ft | 248 kts | 167° |
| 2026-05-03 23:00 | -7.86604 | -35.00812 | 2911 ft | 246 kts | 165° |
| 2026-05-03 23:00 | -7.88252 | -35.00364 | 2619 ft | 244 kts | 162° |
| 2026-05-03 23:00 | -7.89869 | -34.99852 | 2334 ft | 240 kts | 161° |
| 2026-05-03 23:00 | -7.91427 | -34.99341 | 2165 ft | 230 kts | 161° |
| 2026-05-03 23:01 | -7.92912 | -34.98850 | 2018 ft | 220 kts | 161° |
| 2026-05-03 23:01 | -7.94329 | -34.98381 | 1852 ft | 208 kts | 161° |
| 2026-05-03 23:01 | -7.95637 | -34.97948 | 1802 ft | 186 kts | 161° |
| 2026-05-03 23:01 | -7.96791 | -34.97567 | 1779 ft | 162 kts | 161° |
| 2026-05-03 23:02 | -7.97785 | -34.97237 | 1804 ft | 145 kts | 161° |
| 2026-05-03 23:02 | -7.98740 | -34.96921 | 1813 ft | 145 kts | 160° |
| 2026-05-03 23:02 | -7.99696 | -34.96604 | 1811 ft | 144 kts | 161° |
| 2026-05-03 23:02 | -8.00649 | -34.96288 | 1807 ft | 144 kts | 162° |
| 2026-05-03 23:03 | -8.01603 | -34.95972 | 1796 ft | 145 kts | 161° |
| 2026-05-03 23:03 | -8.02562 | -34.95654 | 1758 ft | 145 kts | 161° |
| 2026-05-03 23:03 | -8.03517 | -34.95338 | 1600 ft | 144 kts | 162° |
| 2026-05-03 23:03 | -8.04470 | -34.95022 | 1394 ft | 144 kts | 162° |
| 2026-05-03 23:04 | -8.05422 | -34.94707 | 1209 ft | 144 kts | 161° |
| 2026-05-03 23:04 | -8.06376 | -34.94390 | 1018 ft | 144 kts | 161° |
| 2026-05-03 23:04 | -8.07333 | -34.94073 | 844 ft | 145 kts | 161° |
| 2026-05-03 23:04 | -8.08297 | -34.93754 | 678 ft | 146 kts | 161° |
| 2026-05-03 23:05 | -8.09267 | -34.93432 | 500 ft | 147 kts | 161° |
| 2026-05-03 23:05 | -8.10224 | -34.93115 | 317 ft | 143 kts | 160° |
| 2026-05-03 23:05 | -8.11166 | -34.92805 | 120 ft | 143 kts | 161° |
| 2026-05-03 23:05 | -8.12093 | -34.92493 | 50 ft | 133 kts | 161° |
| 2026-05-03 23:06 | -8.12862 | -34.92242 | 42 ft | 94 kts | 161° |
| 2026-05-03 23:06 | -8.13184 | -34.92133 | 42 ft | 14 kts | 147° |
| 2026-05-03 23:06 | -8.13256 | -34.92057 | 42 ft | 15 kts | 130° |
| 2026-05-03 23:06 | -8.13290 | -34.92016 | 41 ft | 6 kts | 131° |
| 2026-05-03 23:07 | -8.13290 | -34.91975 | 42 ft | 8 kts | 39° |
| 2026-05-03 23:07 | -8.13236 | -34.91967 | 42 ft | 9 kts | 342° |
| 2026-05-03 23:07 | -8.13196 | -34.91980 | 42 ft | 9 kts | 343° |
| 2026-05-03 23:07 | -8.13119 | -34.92006 | 43 ft | 8 kts | 340° |
| 2026-05-03 23:08 | -8.13085 | -34.92015 | 43 ft | 7 kts | 9° |
| 2026-05-03 23:08 | -8.13065 | -34.91971 | 43 ft | 7 kts | 72° |
| 2026-05-03 23:08 | -8.13058 | -34.91952 | 43 ft | 2 kts | 71° |